Time;durP1;ratioP1;P1;durP2;ratioP2;P2;SDS_P1;SDS_P2;PMS_P1;PMS_P2;Temp;Humidity;BMP_temperature;BMP_pressure;BME280_temperature;BME280_humidity;BME280_pressure;Samples;Min_cycle;Max_cycle;Signal;HPM_P1;HPM_P2
2021/11/03 00:00:11;118027912.00;393.43;66602248.00;0.00;0.00;0.62;;;;;8.60;1.00;;;;;;2583178;55;962;-89
2021/11/03 00:02:38;1019603.00;3.40;1767.22;0.00;0.00;0.62;;;;;8.70;1.00;;;;;;2583166;55;1347;-89
2021/11/03 00:05:06;997282.00;3.32;1727.66;0.00;0.00;0.62;;;;;8.60;1.00;;;;;;2580910;55;1074;-88
2021/11/03 00:07:34;940745.00;3.14;1627.80;0.00;0.00;0.62;;;;;8.80;1.00;;;;;;2580897;55;1894;-88
2021/11/03 00:10:03;996385.00;3.32;1726.07;0.00;0.00;0.62;;;;;9.00;1.00;;;;;;2580882;55;1057;-88
2021/11/03 00:12:32;921505.00;3.07;1593.92;0.00;0.00;0.62;;;;;8.80;1.00;;;;;;2580800;55;1098;-88
2021/11/03 00:14:59;851733.00;2.84;1471.50;0.00;0.00;0.62;;;;;8.70;1.00;;;;;;2583011;55;1720;-88
2021/11/03 00:17:27;920805.00;3.07;1592.69;0.00;0.00;0.62;;;;;8.80;1.00;;;;;;2580881;55;1096;-88
2021/11/03 00:19:54;893259.00;2.98;1544.28;0.00;0.00;0.62;;;;;9.10;1.00;;;;;;2583027;55;1076;-89
2021/11/03 00:22:21;1011924.00;3.37;1753.60;0.00;0.00;0.62;;;;;9.30;1.00;;;;;;2580920;55;1102;-88
2021/11/03 00:24:49;1066713.00;3.56;1851.00;0.00;0.00;0.62;;;;;9.30;1.00;;;;;;2580817;55;1164;-89
2021/11/03 00:27:16;922779.00;3.08;1596.16;0.00;0.00;0.62;;;;;9.30;1.00;;;;;;2580826;55;1972;-88
2021/11/03 00:29:44;1036259.00;3.45;1796.80;0.00;0.00;0.62;;;;;9.20;1.00;;;;;;2583004;55;1444;-89
2021/11/03 00:32:13;978008.00;3.26;1693.56;0.00;0.00;0.62;;;;;9.30;1.00;;;;;;2580878;55;1022;-88
2021/11/03 00:34:40;975686.00;3.25;1689.46;0.00;0.00;0.62;;;;;9.30;1.00;;;;;;2580774;55;1356;-88
2021/11/03 00:37:07;794150.00;2.65;1370.92;0.00;0.00;0.62;;;;;9.20;1.00;;;;;;2580879;55;1096;-88
2021/11/03 00:39:34;1054306.00;3.51;1828.90;0.00;0.00;0.62;;;;;9.40;1.00;;;;;;2580867;55;1037;-89
2021/11/03 00:42:03;903160.00;3.01;1561.67;0.00;0.00;0.62;;;;;9.50;1.00;;;;;;2580851;55;1010;-88
2021/11/03 00:44:29;1121709.00;3.74;1949.29;0.00;0.00;0.62;;;;;9.50;1.00;;;;;;2583003;55;1733;-89
2021/11/03 00:46:56;959121.00;3.20;1660.20;0.00;0.00;0.62;;;;;9.50;1.00;;;;;;2580853;55;1961;-89
2021/11/03 00:49:23;1020905.00;3.40;1769.53;0.00;0.00;0.62;;;;;9.50;1.00;;;;;;2583003;55;890;-88
2021/11/03 00:51:50;920664.00;3.07;1592.44;0.00;0.00;0.62;;;;;9.50;1.00;;;;;;2583043;55;943;-88
2021/11/03 00:54:18;1023404.00;3.41;1773.97;0.00;0.00;0.62;;;;;9.20;1.00;;;;;;2578081;55;1404;-88
2021/11/03 00:56:48;940844.00;3.14;1627.97;0.00;0.00;0.62;;;;;9.30;1.00;;;;;;2577016;55;1085;-88
2021/11/03 00:59:17;765718.00;2.55;1321.40;0.00;0.00;0.62;;;;;9.30;1.00;;;;;;2575394;55;1125;-88
2021/11/03 01:01:44;736619.00;2.46;1270.80;0.00;0.00;0.62;;;;;9.40;1.00;;;;;;2575688;55;1042;-89
2021/11/03 01:04:10;644414.00;2.15;1110.97;0.00;0.00;0.62;;;;;9.70;1.00;;;;;;2577860;55;1355;-87
2021/11/03 01:06:38;765445.00;2.55;1320.92;0.00;0.00;0.62;;;;;9.60;1.00;;;;;;2577878;55;1943;-88
2021/11/03 01:09:06;1019349.00;3.40;1766.77;0.00;0.00;0.62;;;;;9.80;1.00;;;;;;2577913;55;1192;-89
2021/11/03 01:11:34;938284.00;3.13;1623.46;0.00;0.00;0.62;;;;;9.90;1.00;;;;;;2575654;55;1070;-89
2021/11/03 01:14:01;975098.00;3.25;1688.42;0.00;0.00;0.62;;;;;9.90;1.00;;;;;;2575573;55;1275;-88
2021/11/03 01:16:29;779355.00;2.60;1345.14;0.00;0.00;0.62;;;;;9.90;1.00;;;;;;2575720;55;1014;-88
2021/11/03 01:18:56;788725.00;2.63;1361.47;0.00;0.00;0.62;;;;;9.90;1.00;;;;;;2577799;55;1610;-88
2021/11/03 01:21:24;980575.00;3.27;1698.10;0.00;0.00;0.62;;;;;9.70;1.00;;;;;;2577889;55;964;-89
2021/11/03 01:23:52;916498.00;3.05;1585.11;0.00;0.00;0.62;;;;;9.60;1.00;;;;;;2575562;55;1250;-89
2021/11/03 01:26:19;981365.00;3.27;1699.49;7094.00;0.02;12.91;;;;;9.70;1.00;;;;;;2575584;55;1948;-88
2021/11/03 01:28:46;859294.00;2.86;1484.74;0.00;0.00;0.62;;;;;9.80;1.00;;;;;;2577795;55;1709;-88
2021/11/03 01:31:13;944898.00;3.15;1635.12;0.00;0.00;0.62;;;;;9.70;1.00;;;;;;2577840;55;1663;-88
2021/11/03 01:33:42;1188179.00;3.96;2068.86;0.00;0.00;0.62;;;;;9.80;1.00;;;;;;2575578;55;1249;-88
2021/11/03 01:36:09;914317.00;3.05;1581.28;0.00;0.00;0.62;;;;;10.00;1.00;;;;;;2575654;55;1109;-89
2021/11/03 01:38:36;1012183.00;3.37;1754.06;0.00;0.00;0.62;;;;;10.00;1.00;;;;;;2577717;55;1631;-89
2021/11/03 01:41:03;1106049.00;3.69;1921.24;0.00;0.00;0.62;;;;;10.00;1.00;;;;;;2577756;55;950;-88
2021/11/03 01:43:40;1185049.00;3.95;2063.21;0.00;0.00;0.62;;;;;10.00;1.00;;;;;;2575399;55;1250;-88
2021/11/03 01:46:20;1262321.00;4.21;2203.31;0.00;0.00;0.62;;;;;9.90;1.00;;;;;;2577725;55;1934;-88
2021/11/03 01:48:49;980402.00;3.27;1697.79;0.00;0.00;0.62;;;;;10.10;1.00;;;;;;2575557;55;1126;-89
2021/11/03 01:51:22;1015147.00;3.38;1759.32;0.00;0.00;0.62;;;;;9.80;1.00;;;;;;2575519;55;987;-88
2021/11/03 01:53:50;995183.00;3.32;1723.94;0.00;0.00;0.62;;;;;9.80;1.00;;;;;;2575493;55;1427;-89
2021/11/03 01:56:19;951100.00;3.17;1646.05;0.00;0.00;0.62;;;;;9.90;1.00;;;;;;2575505;55;1101;-88
2021/11/03 01:58:52;1106583.00;3.69;1922.20;0.00;0.00;0.62;;;;;10.00;1.00;;;;;;2575599;55;1065;-88
2021/11/03 02:01:19;1046144.00;3.49;1814.37;0.00;0.00;0.62;;;;;9.90;1.00;;;;;;2575542;55;967;-89
2021/11/03 02:03:50;993422.00;3.31;1720.82;0.00;0.00;0.62;;;;;9.90;1.00;;;;;;2577651;55;1277;-89
2021/11/03 02:06:20;121669648.00;405.57;72965512.00;0.00;0.00;0.62;;;;;10.00;1.00;;;;;;2577627;55;1910;-88
2021/11/03 02:08:49;1081398.00;3.60;1877.19;0.00;0.00;0.62;;;;;10.10;1.00;;;;;;2577766;55;923;-88
2021/11/03 02:11:18;938649.00;3.13;1624.10;0.00;0.00;0.62;;;;;10.10;1.00;;;;;;2577717;55;1732;-88
2021/11/03 02:13:46;1187422.00;3.96;2067.50;0.00;0.00;0.62;;;;;10.30;1.00;;;;;;2577629;55;1504;-88
2021/11/03 02:16:16;1319752.00;4.40;2308.30;12493.00;0.04;22.27;;;;;10.10;1.00;;;;;;2575511;55;979;-88
2021/11/03 02:18:44;1191706.00;3.97;2075.23;0.00;0.00;0.62;;;;;10.00;1.00;;;;;;2575510;55;1073;-88
2021/11/03 02:21:18;1003082.00;3.34;1737.93;0.00;0.00;0.62;;;;;10.10;1.00;;;;;;2575528;55;1024;-88
2021/11/03 02:23:52;1249874.00;4.17;2180.66;0.00;0.00;0.62;;;;;10.20;1.00;;;;;;2575551;55;1373;-88
2021/11/03 02:26:26;956269.00;3.19;1655.17;0.00;0.00;0.62;;;;;10.40;1.00;;;;;;2575539;55;1898;-89
2021/11/03 02:28:53;1015780.00;3.39;1760.44;0.00;0.00;0.62;;;;;10.40;1.00;;;;;;2575498;55;1081;-88
2021/11/03 02:31:33;1136644.00;3.79;1976.08;0.00;0.00;0.62;;;;;10.40;1.00;;;;;;2575475;55;1050;-87
2021/11/03 02:34:01;1347720.00;4.49;2359.71;0.00;0.00;0.62;;;;;10.50;1.00;;;;;;2577668;55;1304;-89
2021/11/03 02:36:28;1098659.00;3.66;1908.03;0.00;0.00;0.62;;;;;10.70;1.00;;;;;;2575372;55;1097;-89
2021/11/03 02:38:55;1031150.00;3.44;1787.72;0.00;0.00;0.62;;;;;10.70;1.00;;;;;;2575434;55;1105;-88
2021/11/03 02:41:26;1207543.00;4.03;2103.86;20506.00;0.07;36.15;;;;;10.60;1.00;;;;;;2577697;55;992;-88
2021/11/03 02:43:58;1059787.00;3.53;1838.66;0.00;0.00;0.62;;;;;10.60;1.00;;;;;;2575446;55;1402;-87
2021/11/03 02:46:27;1173334.00;3.91;2042.08;0.00;0.00;0.62;;;;;10.50;1.00;;;;;;2575461;55;1938;-89
2021/11/03 02:48:54;1058307.00;3.53;1836.02;0.00;0.00;0.62;;;;;10.40;1.00;;;;;;2575469;55;1126;-88
2021/11/03 02:51:23;1039757.00;3.47;1803.01;0.00;0.00;0.62;;;;;10.50;1.00;;;;;;2576295;55;1710;-88
2021/11/03 02:53:55;1153806.00;3.85;2006.92;0.00;0.00;0.62;;;;;10.30;1.00;;;;;;2575406;55;1268;-88
2021/11/03 02:56:26;1294814.00;4.32;2262.62;0.00;0.00;0.62;;;;;10.50;1.00;;;;;;2577633;55;1241;-88
2021/11/03 02:58:53;1117129.00;3.72;1941.08;0.00;0.00;0.62;;;;;10.40;1.00;;;;;;2575458;55;1089;-88
2021/11/03 03:01:30;953348.00;3.18;1650.02;0.00;0.00;0.62;;;;;10.30;1.00;;;;;;2577676;55;980;-88
2021/11/03 03:03:57;1140460.00;3.80;1982.93;0.00;0.00;0.62;;;;;10.30;1.00;;;;;;2575500;55;1434;-88
2021/11/03 03:06:26;1154726.00;3.85;2008.57;0.00;0.00;0.62;;;;;10.30;1.00;;;;;;2577634;55;1906;-88
2021/11/03 03:08:55;1022998.00;3.41;1773.25;0.00;0.00;0.62;;;;;10.30;1.00;;;;;;2575448;55;1101;-89
2021/11/03 03:11:27;1039264.00;3.46;1802.14;0.00;0.00;0.62;;;;;10.20;1.00;;;;;;2575463;55;1138;-88
2021/11/03 03:13:54;905288.00;3.02;1565.41;0.00;0.00;0.62;;;;;10.10;1.00;;;;;;2577551;55;1411;-89
2021/11/03 03:16:22;1032076.00;3.44;1789.37;0.00;0.00;0.62;;;;;10.40;1.00;;;;;;2575416;55;1052;-89
2021/11/03 03:18:50;1013983.00;3.38;1757.25;0.00;0.00;0.62;;;;;10.60;1.00;;;;;;2577630;55;929;-87
2021/11/03 03:21:19;1114059.00;3.71;1935.58;0.00;0.00;0.62;;;;;10.70;1.00;;;;;;2575378;55;1120;-89
2021/11/03 03:23:46;1056159.00;3.52;1832.20;0.00;0.00;0.62;;;;;10.50;1.00;;;;;;2577506;55;1690;-89
2021/11/03 03:26:17;1137672.00;3.79;1977.93;0.00;0.00;0.62;;;;;10.70;1.00;;;;;;2577580;55;923;-89
2021/11/03 03:28:45;1242598.00;4.14;2167.43;0.00;0.00;0.62;;;;;10.50;1.00;;;;;;2575344;55;1995;-89
2021/11/03 03:31:14;956466.00;3.19;1655.52;0.00;0.00;0.62;;;;;10.50;1.00;;;;;;2577608;55;905;-88
2021/11/03 03:33:42;1074944.00;3.58;1865.67;0.00;0.00;0.62;;;;;10.70;1.00;;;;;;2575308;55;1256;-89
2021/11/03 03:36:09;1186544.00;3.96;2065.91;0.00;0.00;0.62;;;;;10.70;1.00;;;;;;2575346;55;1025;-90
2021/11/03 03:38:36;1006553.00;3.36;1744.08;0.00;0.00;0.62;;;;;10.70;1.00;;;;;;2575345;55;1097;-88
2021/11/03 03:41:04;1268057.00;4.23;2213.76;0.00;0.00;0.62;;;;;10.50;1.00;;;;;;2575328;55;1109;-87
2021/11/03 03:43:31;1166055.00;3.89;2028.97;0.00;0.00;0.62;;;;;10.60;1.00;;;;;;2577547;55;1232;-89
2021/11/03 03:45:59;988260.00;3.29;1711.69;0.00;0.00;0.62;;;;;10.50;1.00;;;;;;2575364;55;1081;-88
2021/11/03 03:48:26;1278474.00;4.26;2232.76;0.00;0.00;0.62;;;;;10.30;1.00;;;;;;2577694;55;1915;-89
2021/11/03 03:50:54;1175924.00;3.92;2046.75;0.00;0.00;0.62;;;;;10.30;1.00;;;;;;2577788;55;918;-88
2021/11/03 03:53:21;1021327.00;3.40;1770.28;0.00;0.00;0.62;;;;;10.30;1.00;;;;;;2577626;55;1714;-88
2021/11/03 03:55:48;1156240.00;3.85;2011.30;0.00;0.00;0.62;;;;;10.50;1.00;;;;;;2577784;55;947;-88
2021/11/03 03:58:17;1365757.00;4.55;2392.96;68280.00;0.23;118.79;;;;;10.70;1.00;;;;;;2577838;55;946;-88
2021/11/03 04:00:44;1138914.00;3.80;1980.16;0.00;0.00;0.62;;;;;10.50;1.00;;;;;;2577718;55;1702;-89
2021/11/03 04:03:13;1020918.00;3.40;1769.56;0.00;0.00;0.62;;;;;10.30;1.00;;;;;;2575561;55;1279;-88
2021/11/03 04:05:43;1220263.00;4.07;2126.90;10296.00;0.03;18.46;;;;;10.40;1.00;;;;;;2575569;55;1126;-88
2021/11/03 04:08:10;121407424.00;404.69;72494328.00;0.00;0.00;0.62;;;;;10.20;1.00;;;;;;2575558;55;1937;-89
2021/11/03 04:10:38;1161965.00;3.87;2021.60;0.00;0.00;0.62;;;;;10.10;1.00;;;;;;2577674;55;1594;-90
2021/11/03 04:13:05;1163713.00;3.88;2024.75;0.00;0.00;0.62;;;;;10.00;1.40;;;;;;2575497;55;1301;-88
2021/11/03 04:15:33;1100027.00;3.67;1910.47;0.00;0.00;0.62;;;;;10.20;2.50;;;;;;2575586;55;1121;-89
2021/11/03 04:18:01;1131863.00;3.77;1967.50;0.00;0.00;0.62;;;;;10.50;1.30;;;;;;2575573;55;1008;-89
2021/11/03 04:20:29;118445768.00;394.82;67312776.00;0.00;0.00;0.62;;;;;10.40;1.00;;;;;;2575527;55;963;-89
2021/11/03 04:22:57;1042772.00;3.48;1808.38;0.00;0.00;0.62;;;;;10.30;1.50;;;;;;2577816;55;1377;-89
2021/11/03 04:25:24;1106743.00;3.69;1922.49;0.00;0.00;0.62;;;;;10.30;1.00;;;;;;2577754;55;930;-89
2021/11/03 04:27:50;859477.00;2.86;1485.06;0.00;0.00;0.62;;;;;10.50;1.10;;;;;;2577744;55;1949;-89
2021/11/03 04:30:20;1026014.00;3.42;1778.60;0.00;0.00;0.62;;;;;10.60;1.00;;;;;;2575542;55;1259;-89
2021/11/03 04:32:47;1302589.00;4.34;2276.84;0.00;0.00;0.62;;;;;10.90;1.00;;;;;;2577776;55;1255;-89
2021/11/03 04:35:15;1078473.00;3.59;1871.97;0.00;0.00;0.62;;;;;10.90;1.00;;;;;;2575557;55;1051;-87
2021/11/03 04:37:44;1067927.00;3.56;1853.16;0.00;0.00;0.62;;;;;11.00;1.00;;;;;;2577774;55;963;-88
2021/11/03 04:40:14;1128818.00;3.76;1962.04;0.00;0.00;0.62;;;;;11.20;1.00;;;;;;2575615;55;973;-88
2021/11/03 04:42:41;1058915.00;3.53;1837.10;0.00;0.00;0.62;;;;;11.00;1.00;;;;;;2577776;55;1245;-89
2021/11/03 04:45:10;1085009.00;3.62;1883.64;0.00;0.00;0.62;;;;;10.90;1.00;;;;;;2575498;55;982;-89
2021/11/03 04:47:37;1187263.00;3.96;2067.21;0.00;0.00;0.62;;;;;10.80;1.00;;;;;;2575582;55;1961;-91
2021/11/03 04:50:07;885809.00;2.95;1531.21;0.00;0.00;0.62;;;;;10.80;1.00;;;;;;2575592;55;1082;-88
2021/11/03 04:52:34;1085045.00;3.62;1883.70;0.00;0.00;0.62;;;;;10.60;1.00;;;;;;2577824;55;1022;-88
2021/11/03 04:55:02;1227080.00;4.09;2139.26;0.00;0.00;0.62;;;;;10.40;1.60;;;;;;2575499;55;1023;-89
2021/11/03 04:57:29;1093251.00;3.64;1898.36;0.00;0.00;0.62;;;;;10.20;2.80;;;;;;2577582;55;1556;-89
2021/11/03 04:59:56;1125019.00;3.75;1955.22;0.00;0.00;0.62;;;;;10.50;2.40;;;;;;2575441;55;921;-89
2021/11/03 05:02:24;899550.00;3.00;1555.33;0.00;0.00;0.62;;;;;10.60;2.60;;;;;;2577768;55;1502;-88
2021/11/03 05:04:51;1029368.00;3.43;1784.56;0.00;0.00;0.62;;;;;10.30;2.10;;;;;;2575543;55;1366;-88
2021/11/03 05:07:18;937189.00;3.12;1621.53;35509.00;0.12;62.12;;;;;10.40;2.70;;;;;;2577768;55;1997;-87
2021/11/03 05:09:45;1116002.00;3.72;1939.06;57862.00;0.19;100.78;;;;;10.50;2.30;;;;;;2575512;55;1133;-87
2021/11/03 05:12:14;1077453.00;3.59;1870.15;0.00;0.00;0.62;;;;;10.50;2.00;;;;;;2575543;55;1066;-88
2021/11/03 05:14:40;1254836.00;4.18;2189.68;3910.00;0.01;7.40;;;;;10.70;2.40;;;;;;2577720;55;1300;-87
2021/11/03 05:17:07;1054638.00;3.52;1829.49;0.00;0.00;0.62;;;;;11.00;1.00;;;;;;2575549;55;1038;-88
2021/11/03 05:19:34;914465.00;3.05;1581.54;0.00;0.00;0.62;;;;;11.00;1.00;;;;;;2575556;55;1100;-88
2021/11/03 05:22:03;1069907.00;3.57;1856.69;0.00;0.00;0.62;;;;;10.80;1.00;;;;;;2575560;55;1125;-88
2021/11/03 05:24:31;1104530.00;3.68;1918.53;0.00;0.00;0.62;;;;;10.70;1.20;;;;;;2575483;55;1267;-88
2021/11/03 05:26:58;992501.00;3.31;1719.19;0.00;0.00;0.62;;;;;10.80;1.20;;;;;;2575499;55;1957;-89
2021/11/03 05:29:27;1059297.00;3.53;1837.78;0.00;0.00;0.62;;;;;10.80;1.00;;;;;;2575518;55;1104;-88
2021/11/03 05:31:54;1131867.00;3.77;1967.51;0.00;0.00;0.62;;;;;10.80;1.00;;;;;;2575493;55;1114;-88
2021/11/03 05:34:21;1243521.00;4.15;2169.11;0.00;0.00;0.62;;;;;10.80;1.00;;;;;;2577659;55;1335;-87
2021/11/03 05:36:48;999780.00;3.33;1732.08;0.00;0.00;0.62;;;;;11.00;1.00;;;;;;2575474;55;1080;-88
2021/11/03 05:39:17;1112006.00;3.71;1931.91;0.00;0.00;0.62;;;;;11.20;1.00;;;;;;2575536;55;1109;-89
2021/11/03 05:41:44;1080409.00;3.60;1875.42;0.00;0.00;0.62;;;;;11.10;1.00;;;;;;2575525;55;1083;-87
2021/11/03 05:44:14;1295285.00;4.32;2263.48;0.00;0.00;0.62;;;;;10.90;1.00;;;;;;2577685;55;1488;-87
2021/11/03 05:46:45;1124169.00;3.75;1953.70;0.00;0.00;0.62;;;;;10.90;1.00;;;;;;2575464;55;1132;-88
2021/11/03 05:49:15;1165213.00;3.88;2027.45;0.00;0.00;0.62;;;;;11.00;1.00;;;;;;2577655;55;1968;-87
2021/11/03 05:51:45;1234960.00;4.12;2153.56;0.00;0.00;0.62;;;;;10.80;1.00;;;;;;2575440;55;1116;-88
2021/11/03 05:54:12;1018678.00;3.40;1765.58;0.00;0.00;0.62;;;;;10.60;1.00;;;;;;2575473;55;1370;-88
2021/11/03 05:56:39;1204653.00;4.02;2098.64;0.00;0.00;0.62;;;;;10.90;1.00;;;;;;2575528;55;1105;-88
2021/11/03 05:59:07;1182295.00;3.94;2058.24;18329.00;0.06;32.38;;;;;10.80;1.00;;;;;;2575442;55;1001;-87
2021/11/03 06:01:34;1081507.00;3.61;1877.38;0.00;0.00;0.62;;;;;10.70;1.00;;;;;;2577685;55;1159;-89
2021/11/03 06:04:03;1238806.00;4.13;2160.54;0.00;0.00;0.62;;;;;10.40;1.00;;;;;;2577612;55;1388;-88
2021/11/03 06:06:30;1211784.00;4.04;2111.54;0.00;0.00;0.62;;;;;10.30;1.00;;;;;;2575525;55;1074;-88
2021/11/03 06:08:57;1196381.00;3.99;2083.68;0.00;0.00;0.62;;;;;10.30;1.00;;;;;;2577590;55;1970;-89
2021/11/03 06:11:27;1168812.00;3.90;2033.93;0.00;0.00;0.62;;;;;10.40;1.00;;;;;;2575520;55;1188;-88
2021/11/03 06:13:54;1005276.00;3.35;1741.82;0.00;0.00;0.62;;;;;10.50;1.00;;;;;;2575509;55;1435;-88
2021/11/03 06:16:22;1211752.00;4.04;2111.48;0.00;0.00;0.62;;;;;10.30;1.00;;;;;;2575480;55;1092;-88
2021/11/03 06:18:51;1019402.00;3.40;1766.87;0.00;0.00;0.62;;;;;10.10;1.60;;;;;;2575523;55;1106;-88
2021/11/03 06:21:20;1136689.00;3.79;1976.16;0.00;0.00;0.62;;;;;10.20;1.20;;;;;;2575492;55;942;-87
2021/11/03 06:23:47;1144837.00;3.82;1990.80;0.00;0.00;0.62;;;;;10.00;1.00;;;;;;2575448;55;1308;-88
2021/11/03 06:26:16;1150407.00;3.83;2000.81;0.00;0.00;0.62;;;;;10.10;1.20;;;;;;2575428;55;1115;-87
2021/11/03 06:28:43;1283745.00;4.28;2242.39;0.00;0.00;0.62;;;;;9.80;3.40;;;;;;2577521;55;1964;-88
2021/11/03 06:31:10;1079669.00;3.60;1874.10;0.00;0.00;0.62;;;;;9.80;3.00;;;;;;2575496;55;942;-87
2021/11/03 06:33:38;1193596.00;3.98;2078.65;49449.00;0.16;86.23;;;;;10.00;2.40;;;;;;2575529;55;1286;-89
2021/11/03 06:36:07;940461.00;3.13;1627.30;0.00;0.00;0.62;;;;;10.20;1.50;;;;;;2577657;55;947;-88
2021/11/03 06:38:36;1079094.00;3.60;1873.08;0.00;0.00;0.62;;;;;10.00;2.10;;;;;;2575445;55;1071;-88
2021/11/03 06:41:07;1250393.00;4.17;2181.60;0.00;0.00;0.62;;;;;10.10;2.60;;;;;;2575487;55;998;-88
2021/11/03 06:43:34;1047544.00;3.49;1816.86;0.00;0.00;0.62;;;;;10.30;2.40;;;;;;2577728;55;1288;-88
2021/11/03 06:46:01;993535.00;3.31;1721.02;0.00;0.00;0.62;;;;;10.50;2.10;;;;;;2577539;55;1606;-88
2021/11/03 06:48:28;1207823.00;4.03;2104.37;0.00;0.00;0.62;;;;;10.50;1.70;;;;;;2577553;55;1957;-87
2021/11/03 06:50:55;1110275.00;3.70;1928.81;0.00;0.00;0.62;;;;;10.90;1.20;;;;;;2577618;55;970;-88
2021/11/03 06:53:25;1133841.00;3.78;1971.05;0.00;0.00;0.62;;;;;10.90;1.00;;;;;;2575333;55;1358;-86
2021/11/03 06:55:56;1135736.00;3.79;1974.45;0.00;0.00;0.62;;;;;10.90;1.20;;;;;;2577214;55;1528;-87
2021/11/03 06:58:25;999469.00;3.33;1731.53;0.00;0.00;0.62;;;;;11.10;1.00;;;;;;2582745;55;1005;-87
2021/11/03 07:00:54;1107471.00;3.69;1923.79;20110.00;0.07;35.46;;;;;11.00;1.00;;;;;;2578348;55;1041;-87
2021/11/03 07:03:25;968366.00;3.23;1676.52;0.00;0.00;0.62;;;;;11.20;1.00;;;;;;2575429;55;1338;-87
2021/11/03 07:05:52;887747.00;2.96;1534.61;0.00;0.00;0.62;;;;;11.20;1.00;;;;;;2577631;55;1678;-87
2021/11/03 07:08:21;958220.00;3.19;1658.61;0.00;0.00;0.62;;;;;11.20;1.00;;;;;;2575346;55;1944;-87
2021/11/03 07:10:51;1298235.00;4.33;2268.88;0.00;0.00;0.62;;;;;11.30;1.00;;;;;;2577469;55;1024;-88
2021/11/03 07:13:21;1308053.00;4.36;2286.85;0.00;0.00;0.62;;;;;11.40;1.00;;;;;;2577491;55;1304;-88
2021/11/03 07:15:49;1106178.00;3.69;1921.48;0.00;0.00;0.62;;;;;11.20;1.00;;;;;;2575339;55;1040;-88
2021/11/03 07:18:17;1248332.00;4.16;2177.85;0.00;0.00;0.62;;;;;11.10;1.00;;;;;;2575272;55;1109;-87
2021/11/03 07:20:45;1221141.00;4.07;2128.49;0.00;0.00;0.62;;;;;11.20;1.00;;;;;;2577456;55;993;-87
2021/11/03 07:23:14;1117758.00;3.73;1942.21;43994.00;0.15;76.80;;;;;11.10;1.00;;;;;;2575431;55;1355;-88
2021/11/03 07:25:42;1156544.00;3.86;2011.85;0.00;0.00;0.62;;;;;11.30;1.00;;;;;;2577708;55;1708;-88
2021/11/03 07:28:09;1211073.00;4.04;2110.25;25301.00;0.08;44.45;;;;;11.20;1.00;;;;;;2577712;55;1953;-87
2021/11/03 07:30:39;913891.00;3.05;1580.53;0.00;0.00;0.62;;;;;11.20;1.00;;;;;;2575491;55;1047;-87
2021/11/03 07:33:07;1231364.00;4.10;2147.03;29239.00;0.10;51.27;;;;;11.40;1.00;;;;;;2575418;55;1347;-88
2021/11/03 07:35:35;1086722.00;3.62;1886.69;0.00;0.00;0.62;;;;;11.40;1.00;;;;;;2577875;55;959;-88
2021/11/03 07:38:03;1026326.00;3.42;1779.15;0.00;0.00;0.62;;;;;11.50;1.00;;;;;;2577700;55;1792;-87
2021/11/03 07:40:34;1016600.00;3.39;1761.89;16465.00;0.05;29.15;;;;;11.70;1.00;;;;;;2575501;55;1117;-88
2021/11/03 07:43:04;987527.00;3.29;1710.39;0.00;0.00;0.62;;;;;11.70;1.00;;;;;;2577669;55;1561;-87
2021/11/03 07:45:32;1131604.00;3.77;1967.04;0.00;0.00;0.62;;;;;11.60;1.00;;;;;;2575159;55;1008;-87
2021/11/03 07:48:03;1151271.00;3.84;2002.36;0.00;0.00;0.62;;;;;11.80;1.00;;;;;;2577164;55;1973;-89
2021/11/03 07:50:34;1504187.00;5.01;2651.00;0.00;0.00;0.62;;;;;11.80;1.00;;;;;;2575218;55;1125;-88
2021/11/03 07:53:01;123076296.00;410.25;75528032.00;163950.00;0.55;283.84;;;;;11.80;1.00;;;;;;2577649;55;1654;-88
2021/11/03 07:55:28;1386333.00;4.62;2431.00;87036.00;0.29;151.19;;;;;11.90;1.00;;;;;;2575353;55;930;-90
2021/11/03 07:57:55;1219549.00;4.07;2125.60;0.00;0.00;0.62;;;;;12.00;1.00;;;;;;2577436;55;1523;-90
2021/11/03 08:00:27;1336082.00;4.45;2338.29;15424.00;0.05;27.35;;;;;12.70;3.20;;;;;;2578328;55;1571;-92
2021/11/03 08:02:54;1894249.00;6.31;3409.39;53300.00;0.18;92.89;;;;;13.00;1.00;;;;;;2580620;55;1395;-89
2021/11/03 14:03:26;29726.00;0.10;52.11;0.00;0.00;0.62;;;;;15.40;1.00;;;;;;2591945;55;538;-88
2021/11/03 14:05:53;57550.00;0.19;100.24;0.00;0.00;0.62;;;;;15.40;1.00;;;;;;2588333;55;968;-91
2021/11/03 14:08:25;44601.00;0.15;77.85;0.00;0.00;0.62;;;;;15.40;1.00;;;;;;2585471;55;1909;-87
2021/11/03 14:10:52;37164.00;0.12;64.98;0.00;0.00;0.62;;;;;15.40;1.00;;;;;;2579660;55;1363;-86
2021/11/03 14:13:19;147870.00;0.49;256.14;13755.00;0.05;24.45;;;;;15.30;1.00;;;;;;2579658;55;1027;-87
2021/11/03 14:15:47;169029.00;0.56;292.59;0.00;0.00;0.62;;;;;15.30;1.00;;;;;;2586281;55;969;-88
2021/11/03 14:18:16;21847.00;0.07;38.47;0.00;0.00;0.62;;;;;15.10;1.00;;;;;;2588386;55;969;-88
2021/11/03 14:20:49;154582.00;0.52;267.70;0.00;0.00;0.62;;;;;15.30;1.00;;;;;;2579691;55;1243;-88
2021/11/03 14:23:19;51722.00;0.17;90.16;0.00;0.00;0.62;;;;;15.50;1.00;;;;;;2585041;55;929;-87
2021/11/03 14:25:48;65767.00;0.22;114.45;0.00;0.00;0.62;;;;;15.90;1.00;;;;;;2594222;55;950;-87
2021/11/03 14:28:18;44743.00;0.15;78.09;0.00;0.00;0.62;;;;;16.00;1.00;;;;;;2594250;55;1939;-88
2021/11/03 14:30:48;111285.00;0.37;193.05;0.00;0.00;0.62;;;;;15.60;1.00;;;;;;2591412;55;1301;-88
2021/11/03 14:33:21;59512.00;0.20;103.63;0.00;0.00;0.62;;;;;14.70;1.00;;;;;;2589203;55;915;-88
2021/11/03 14:35:50;32944.00;0.11;57.68;0.00;0.00;0.62;;;;;14.70;1.00;;;;;;2594130;55;926;-87
2021/11/03 14:38:22;4912.00;0.02;9.13;0.00;0.00;0.62;;;;;15.00;1.00;;;;;;2591531;55;993;-88
2021/11/03 14:40:53;191829.00;0.64;331.86;0.00;0.00;0.62;;;;;15.10;1.00;;;;;;2591842;55;1399;-87
2021/11/03 14:43:20;58055.00;0.19;101.11;0.00;0.00;0.62;;;;;14.80;1.00;;;;;;2590953;55;967;-88
2021/11/03 14:45:48;109044.00;0.36;189.18;20414.00;0.07;35.99;;;;;14.60;1.00;;;;;;2594078;55;943;-88
2021/11/03 14:48:16;68605.00;0.23;119.35;0.00;0.00;0.62;;;;;14.90;1.00;;;;;;2594074;55;1902;-87
2021/11/03 14:50:43;94606.00;0.32;164.26;0.00;0.00;0.62;;;;;15.00;1.00;;;;;;2594101;55;1383;-88
2021/11/03 14:53:16;39806.00;0.13;69.55;0.00;0.00;0.62;;;;;14.60;1.00;;;;;;2584905;55;927;-87
2021/11/03 14:55:45;179912.00;0.60;311.34;14846.00;0.05;26.34;;;;;14.40;1.00;;;;;;2584998;55;1134;-87
2021/11/03 14:58:16;47878.00;0.16;83.52;0.00;0.00;0.62;;;;;14.20;1.00;;;;;;2594206;55;984;-88
2021/11/03 15:00:46;48339.00;0.16;84.31;0.00;0.00;0.62;;;;;14.00;1.00;;;;;;2584973;55;1386;-88
2021/11/03 15:03:17;312344.00;1.04;539.14;5728.00;0.02;10.55;;;;;13.90;1.00;;;;;;2577842;55;968;-88
2021/11/03 15:05:45;225904.00;0.75;390.50;0.00;0.00;0.62;;;;;13.60;1.00;;;;;;2575671;55;1143;-89
2021/11/03 15:08:20;48332.00;0.16;84.30;0.00;0.00;0.62;;;;;13.50;1.00;;;;;;2575428;55;980;-87
2021/11/03 15:10:48;88653.00;0.30;153.98;0.00;0.00;0.62;;;;;13.70;1.00;;;;;;2575574;55;1277;-88
2021/11/03 15:13:16;183517.00;0.61;317.55;0.00;0.00;0.62;;;;;13.50;1.00;;;;;;2564925;55;951;-88
2021/11/03 15:15:44;108554.00;0.36;188.33;0.00;0.00;0.62;;;;;13.50;1.00;;;;;;2577862;55;920;-88
2021/11/03 15:18:13;307733.00;1.03;531.21;0.00;0.00;0.62;;;;;13.40;1.00;;;;;;2577841;55;946;-88
2021/11/03 15:20:40;127637.00;0.43;221.25;0.00;0.00;0.62;;;;;13.40;1.00;;;;;;2579088;55;1422;-88
2021/11/03 15:23:16;48829.00;0.16;85.16;0.00;0.00;0.62;;;;;13.50;1.00;;;;;;2594060;55;973;-87
2021/11/03 15:25:45;51264.00;0.17;89.37;0.00;0.00;0.62;;;;;13.20;1.00;;;;;;2593985;55;977;-87
2021/11/03 15:28:14;164963.00;0.55;285.59;0.00;0.00;0.62;;;;;13.40;1.00;;;;;;2593972;55;997;-86
2021/11/03 15:30:41;89043.00;0.30;154.66;0.00;0.00;0.62;;;;;14.20;1.00;;;;;;2582796;55;1954;-88
2021/11/03 15:33:13;64692.00;0.22;112.59;0.00;0.00;0.62;;;;;14.30;1.00;;;;;;2583120;55;917;-88
2021/11/03 15:35:42;26101.00;0.09;45.83;0.00;0.00;0.62;;;;;14.80;1.00;;;;;;2578542;55;1072;-88
2021/11/03 15:38:15;35534.00;0.12;62.16;0.00;0.00;0.62;;;;;15.20;1.00;;;;;;2580419;55;1112;-88
2021/11/03 15:40:47;100314.00;0.33;174.11;0.00;0.00;0.62;;;;;15.00;1.00;;;;;;2580715;55;1495;-87
2021/11/03 15:43:17;5786.00;0.02;10.65;0.00;0.00;0.62;;;;;14.70;1.00;;;;;;2578695;55;976;-89
2021/11/03 15:45:45;154276.00;0.51;267.18;0.00;0.00;0.62;;;;;14.60;1.00;;;;;;2578909;55;1004;-87
2021/11/03 15:48:16;166096.00;0.55;287.54;0.00;0.00;0.62;;;;;14.70;1.00;;;;;;2586083;55;976;-87
2021/11/03 15:50:45;118362.00;0.39;205.26;0.00;0.00;0.62;;;;;15.00;1.00;;;;;;2594143;55;1946;-87
2021/11/03 15:53:16;124913.00;0.42;216.56;0.00;0.00;0.62;;;;;15.50;1.00;;;;;;2594248;55;1033;-89